Nowshera Weather



Nowshera's Current Weather

Temprature 33o haze

haze

Rain: 0 %

Min Temprature33o
Max Temprature33o
Humidity40
Wind Speed5.14 m/h
Sun Rise05:16:19
Sun Set19:00:41
Current Time: 08-May-2021 15:12:25
Lat/Lon: 34.0058, 71.9977




Nowshera's Geo Location



Nowshera's Weather Forecast

Time Overall Temp Min Temp Max Temp Humidity Wind Speed Rain
08-May-2021 (Sat)
17:00:00 scattered clouds 32.650 31.960 32.650 36 7.3 m/h 0 %
20:00:00 light rain 31.250 30.380 31.250 32 2.19 m/h 18 %
23:00:00 broken clouds 26.650 26.650 26.650 44 2.94 m/h 0 %
09-May-2021 (Sun)
02:00:00 overcast clouds 26.400 26.400 26.400 43 0.68 m/h 0 %
05:00:00 broken clouds 24.820 24.820 24.820 47 1.42 m/h 0 %
08:00:00 few clouds 28.060 28.060 28.060 38 1.35 m/h 0 %
11:00:00 clear sky 33.290 33.290 33.290 27 1.34 m/h 0 %
14:00:00 clear sky 36.480 36.480 36.480 20 1.29 m/h 0 %
17:00:00 clear sky 37.170 37.170 37.170 18 2.48 m/h 0 %
20:00:00 clear sky 32.720 32.720 32.720 25 2.06 m/h 0 %
23:00:00 clear sky 31.220 31.220 31.220 27 2.44 m/h 0 %
10-May-2021 (Mon)
02:00:00 light rain 26.930 26.930 26.930 43 3.03 m/h 49 %
05:00:00 light rain 26.020 26.020 26.020 44 1.87 m/h 51 %
08:00:00 light rain 28.680 28.680 28.680 37 2.1 m/h 13 %
11:00:00 broken clouds 32.900 32.900 32.900 28 1.47 m/h 0 %
14:00:00 scattered clouds 36.330 36.330 36.330 21 0.44 m/h 0 %
17:00:00 broken clouds 37.240 37.240 37.240 20 2.39 m/h 0 %
20:00:00 light rain 32.720 32.720 32.720 29 1.99 m/h 43 %
23:00:00 scattered clouds 30.610 30.610 30.610 31 3.65 m/h 0 %
11-May-2021 (Tue)
02:00:00 clear sky 28.160 28.160 28.160 39 2.95 m/h 0 %
05:00:00 light rain 26.080 26.080 26.080 45 1.87 m/h 20 %
08:00:00 light rain 28.760 28.760 28.760 40 1.03 m/h 130 %
11:00:00 light rain 33.480 33.480 33.480 29 1.38 m/h 19 %
14:00:00 broken clouds 36.930 36.930 36.930 22 1.01 m/h 0 %
17:00:00 scattered clouds 37.830 37.830 37.830 19 4.85 m/h 0 %
20:00:00 light rain 26.690 26.690 26.690 43 6.83 m/h 59 %
23:00:00 light rain 23.710 23.710 23.710 59 5.49 m/h 177 %
12-May-2021 (Wed)
02:00:00 light rain 23.350 23.350 23.350 60 2.3 m/h 67 %
05:00:00 overcast clouds 23.250 23.250 23.250 57 2.37 m/h 0 %
08:00:00 light rain 25.610 25.610 25.610 47 1.01 m/h 24 %
11:00:00 light rain 29.970 29.970 29.970 34 1.79 m/h 12 %
14:00:00 scattered clouds 33.050 33.050 33.050 26 3.01 m/h 0 %
17:00:00 scattered clouds 33.370 33.370 33.370 25 1.51 m/h 0 %
20:00:00 few clouds 28.040 28.040 28.040 42 6.3 m/h 0 %
23:00:00 light rain 25.060 25.060 25.060 59 1.66 m/h 142 %
13-May-2021 (Thu)
02:00:00 overcast clouds 24.090 24.090 24.090 64 1.65 m/h 0 %
05:00:00 broken clouds 22.790 22.790 22.790 69 0.87 m/h 0 %
08:00:00 light rain 24.790 24.790 24.790 56 1.32 m/h 13 %
11:00:00 overcast clouds 27.070 27.070 27.070 46 3.3 m/h 0 %
14:00:00 overcast clouds 28.620 28.620 28.620 33 3.23 m/h 0 %

Famous Cities (60)